sensor_id;sensor_type;location;lat;lon;timestamp;temperature;humidity
16154;DHT22;8182;55.648;13.208;2022-07-25T00:02:18;16.10;99.90
16154;DHT22;8182;55.648;13.208;2022-07-25T00:04:46;16.10;99.90
16154;DHT22;8182;55.648;13.208;2022-07-25T00:07:13;16.20;99.90
16154;DHT22;8182;55.648;13.208;2022-07-25T00:09:41;16.20;99.90
16154;DHT22;8182;55.648;13.208;2022-07-25T00:12:08;16.20;99.90
16154;DHT22;8182;55.648;13.208;2022-07-25T00:14:37;16.20;99.90
16154;DHT22;8182;55.648;13.208;2022-07-25T00:17:04;16.10;99.90
16154;DHT22;8182;55.648;13.208;2022-07-25T00:19:30;15.90;99.90
16154;DHT22;8182;55.648;13.208;2022-07-25T00:21:58;15.90;99.90
16154;DHT22;8182;55.648;13.208;2022-07-25T00:24:26;16.00;99.90
16154;DHT22;8182;55.648;13.208;2022-07-25T00:26:53;15.90;99.90
16154;DHT22;8182;55.648;13.208;2022-07-25T00:29:20;15.80;99.90
16154;DHT22;8182;55.648;13.208;2022-07-25T00:31:48;15.80;99.90
16154;DHT22;8182;55.648;13.208;2022-07-25T00:34:15;15.70;99.90
16154;DHT22;8182;55.648;13.208;2022-07-25T00:36:42;15.70;99.90
16154;DHT22;8182;55.648;13.208;2022-07-25T00:39:09;15.70;99.90
16154;DHT22;8182;55.648;13.208;2022-07-25T00:41:36;15.60;99.90
16154;DHT22;8182;55.648;13.208;2022-07-25T00:44:04;15.50;99.90
16154;DHT22;8182;55.648;13.208;2022-07-25T00:46:31;15.60;99.90
16154;DHT22;8182;55.648;13.208;2022-07-25T00:49:00;15.60;99.90
16154;DHT22;8182;55.648;13.208;2022-07-25T00:51:27;15.50;99.90
16154;DHT22;8182;55.648;13.208;2022-07-25T00:53:55;15.50;99.90
16154;DHT22;8182;55.648;13.208;2022-07-25T00:56:23;15.40;99.90
16154;DHT22;8182;55.648;13.208;2022-07-25T00:58:51;15.40;99.90
16154;DHT22;8182;55.648;13.208;2022-07-25T01:01:18;15.40;99.90
16154;DHT22;8182;55.648;13.208;2022-07-25T01:03:44;15.40;99.90
16154;DHT22;8182;55.648;13.208;2022-07-25T01:06:13;15.40;99.90
16154;DHT22;8182;55.648;13.208;2022-07-25T01:08:41;15.40;99.90
16154;DHT22;8182;55.648;13.208;2022-07-25T01:11:08;15.30;99.90
16154;DHT22;8182;55.648;13.208;2022-07-25T01:13:36;15.40;99.90
16154;DHT22;8182;55.648;13.208;2022-07-25T01:16:03;15.40;99.90
16154;DHT22;8182;55.648;13.208;2022-07-25T01:18:30;15.30;99.90
16154;DHT22;8182;55.648;13.208;2022-07-25T01:21:01;15.30;99.90
16154;DHT22;8182;55.648;13.208;2022-07-25T01:23:28;15.30;99.90
16154;DHT22;8182;55.648;13.208;2022-07-25T01:25:55;15.30;99.90
16154;DHT22;8182;55.648;13.208;2022-07-25T01:28:22;15.30;99.90
16154;DHT22;8182;55.648;13.208;2022-07-25T01:30:50;15.40;99.90
16154;DHT22;8182;55.648;13.208;2022-07-25T01:33:18;15.60;99.90
16154;DHT22;8182;55.648;13.208;2022-07-25T01:35:46;15.80;99.90
16154;DHT22;8182;55.648;13.208;2022-07-25T01:38:15;15.50;99.90
16154;DHT22;8182;55.648;13.208;2022-07-25T01:40:44;15.70;99.90
16154;DHT22;8182;55.648;13.208;2022-07-25T01:43:11;15.80;99.90
16154;DHT22;8182;55.648;13.208;2022-07-25T01:45:38;15.90;99.90
16154;DHT22;8182;55.648;13.208;2022-07-25T01:48:06;15.80;99.90
16154;DHT22;8182;55.648;13.208;2022-07-25T01:50:33;15.80;99.90
16154;DHT22;8182;55.648;13.208;2022-07-25T01:53:00;15.90;99.90
16154;DHT22;8182;55.648;13.208;2022-07-25T01:55:35;16.00;99.90
16154;DHT22;8182;55.648;13.208;2022-07-25T01:58:02;15.90;99.90
16154;DHT22;8182;55.648;13.208;2022-07-25T02:00:30;15.90;99.90
16154;DHT22;8182;55.648;13.208;2022-07-25T02:02:57;15.90;99.90
16154;DHT22;8182;55.648;13.208;2022-07-25T02:05:42;16.00;99.90
16154;DHT22;8182;55.648;13.208;2022-07-25T02:08:09;16.10;99.90
16154;DHT22;8182;55.648;13.208;2022-07-25T02:10:38;16.20;99.90
16154;DHT22;8182;55.648;13.208;2022-07-25T02:13:05;16.20;99.90
16154;DHT22;8182;55.648;13.208;2022-07-25T02:15:33;16.20;99.90
16154;DHT22;8182;55.648;13.208;2022-07-25T02:18:01;16.20;99.90
16154;DHT22;8182;55.648;13.208;2022-07-25T02:20:28;16.20;99.90
16154;DHT22;8182;55.648;13.208;2022-07-25T02:22:56;16.20;99.90
16154;DHT22;8182;55.648;13.208;2022-07-25T02:25:23;16.20;99.90
16154;DHT22;8182;55.648;13.208;2022-07-25T02:27:51;16.20;99.90
16154;DHT22;8182;55.648;13.208;2022-07-25T02:30:18;16.20;99.90
16154;DHT22;8182;55.648;13.208;2022-07-25T02:32:46;16.20;99.90
16154;DHT22;8182;55.648;13.208;2022-07-25T02:35:13;16.30;99.90
16154;DHT22;8182;55.648;13.208;2022-07-25T02:37:40;16.30;99.90
16154;DHT22;8182;55.648;13.208;2022-07-25T02:40:08;16.30;99.90
16154;DHT22;8182;55.648;13.208;2022-07-25T02:42:36;16.30;99.90
16154;DHT22;8182;55.648;13.208;2022-07-25T02:45:05;16.20;99.90
16154;DHT22;8182;55.648;13.208;2022-07-25T02:47:33;16.30;99.90
16154;DHT22;8182;55.648;13.208;2022-07-25T02:50:01;16.30;99.90
16154;DHT22;8182;55.648;13.208;2022-07-25T02:52:29;16.40;99.90
16154;DHT22;8182;55.648;13.208;2022-07-25T02:55:02;16.40;99.90
16154;DHT22;8182;55.648;13.208;2022-07-25T02:57:30;16.40;99.90
16154;DHT22;8182;55.648;13.208;2022-07-25T02:59:57;16.40;99.90
16154;DHT22;8182;55.648;13.208;2022-07-25T03:02:26;16.50;99.90
16154;DHT22;8182;55.648;13.208;2022-07-25T03:04:53;16.40;99.90
16154;DHT22;8182;55.648;13.208;2022-07-25T03:07:20;16.40;99.90
16154;DHT22;8182;55.648;13.208;2022-07-25T03:09:47;16.50;99.90
16154;DHT22;8182;55.648;13.208;2022-07-25T03:12:14;16.40;99.90
16154;DHT22;8182;55.648;13.208;2022-07-25T03:14:41;16.40;99.90
16154;DHT22;8182;55.648;13.208;2022-07-25T03:17:08;16.40;99.90
16154;DHT22;8182;55.648;13.208;2022-07-25T03:19:36;16.60;99.90
16154;DHT22;8182;55.648;13.208;2022-07-25T03:22:04;16.60;99.90
16154;DHT22;8182;55.648;13.208;2022-07-25T03:24:31;16.60;99.90
16154;DHT22;8182;55.648;13.208;2022-07-25T03:26:58;16.70;99.90
16154;DHT22;8182;55.648;13.208;2022-07-25T03:29:26;16.60;99.90
16154;DHT22;8182;55.648;13.208;2022-07-25T03:31:53;16.60;99.90
16154;DHT22;8182;55.648;13.208;2022-07-25T03:34:20;16.50;99.90
16154;DHT22;8182;55.648;13.208;2022-07-25T03:36:48;16.70;99.90
16154;DHT22;8182;55.648;13.208;2022-07-25T03:39:16;16.70;99.90
16154;DHT22;8182;55.648;13.208;2022-07-25T03:41:43;16.70;99.90
16154;DHT22;8182;55.648;13.208;2022-07-25T03:44:10;16.70;99.90
16154;DHT22;8182;55.648;13.208;2022-07-25T03:46:37;16.80;99.90
16154;DHT22;8182;55.648;13.208;2022-07-25T03:49:04;16.90;99.90
16154;DHT22;8182;55.648;13.208;2022-07-25T03:51:32;16.90;99.90
16154;DHT22;8182;55.648;13.208;2022-07-25T03:54:00;17.00;99.90
16154;DHT22;8182;55.648;13.208;2022-07-25T03:56:28;17.10;99.90
16154;DHT22;8182;55.648;13.208;2022-07-25T03:58:55;17.20;99.90
16154;DHT22;8182;55.648;13.208;2022-07-25T04:01:25;17.30;99.90
16154;DHT22;8182;55.648;13.208;2022-07-25T04:03:52;17.20;99.90
16154;DHT22;8182;55.648;13.208;2022-07-25T04:06:19;17.20;99.90
16154;DHT22;8182;55.648;13.208;2022-07-25T04:08:47;17.20;99.90
16154;DHT22;8182;55.648;13.208;2022-07-25T04:11:15;17.20;99.90
16154;DHT22;8182;55.648;13.208;2022-07-25T04:13:43;17.20;99.90
16154;DHT22;8182;55.648;13.208;2022-07-25T04:16:11;17.20;99.90
16154;DHT22;8182;55.648;13.208;2022-07-25T04:18:38;16.90;99.90
16154;DHT22;8182;55.648;13.208;2022-07-25T04:21:05;17.00;99.90
16154;DHT22;8182;55.648;13.208;2022-07-25T04:23:33;17.00;99.90
16154;DHT22;8182;55.648;13.208;2022-07-25T04:26:00;17.10;99.90
16154;DHT22;8182;55.648;13.208;2022-07-25T04:28:29;17.40;99.90
16154;DHT22;8182;55.648;13.208;2022-07-25T04:30:57;17.60;99.90
16154;DHT22;8182;55.648;13.208;2022-07-25T04:33:25;17.80;99.90
16154;DHT22;8182;55.648;13.208;2022-07-25T04:35:52;17.80;99.90
16154;DHT22;8182;55.648;13.208;2022-07-25T04:38:19;17.90;99.90
16154;DHT22;8182;55.648;13.208;2022-07-25T04:40:46;18.10;99.90
16154;DHT22;8182;55.648;13.208;2022-07-25T04:43:13;18.20;99.90
16154;DHT22;8182;55.648;13.208;2022-07-25T04:45:42;18.30;99.90
16154;DHT22;8182;55.648;13.208;2022-07-25T04:48:09;18.40;99.90
16154;DHT22;8182;55.648;13.208;2022-07-25T04:50:36;18.50;99.90
16154;DHT22;8182;55.648;13.208;2022-07-25T04:53:04;18.50;99.90
16154;DHT22;8182;55.648;13.208;2022-07-25T04:55:32;18.50;99.90
16154;DHT22;8182;55.648;13.208;2022-07-25T04:58:04;18.70;99.90
16154;DHT22;8182;55.648;13.208;2022-07-25T05:00:31;18.80;99.90
16154;DHT22;8182;55.648;13.208;2022-07-25T05:03:00;18.80;99.90
16154;DHT22;8182;55.648;13.208;2022-07-25T05:05:27;18.80;99.90
16154;DHT22;8182;55.648;13.208;2022-07-25T05:07:55;18.70;99.90
16154;DHT22;8182;55.648;13.208;2022-07-25T05:10:23;18.60;99.90
16154;DHT22;8182;55.648;13.208;2022-07-25T05:12:50;18.60;99.90
16154;DHT22;8182;55.648;13.208;2022-07-25T05:15:17;18.70;99.90
16154;DHT22;8182;55.648;13.208;2022-07-25T05:17:44;19.00;99.90
16154;DHT22;8182;55.648;13.208;2022-07-25T05:20:13;19.30;99.90
16154;DHT22;8182;55.648;13.208;2022-07-25T05:22:40;20.90;99.90
16154;DHT22;8182;55.648;13.208;2022-07-25T05:25:09;22.80;99.90
16154;DHT22;8182;55.648;13.208;2022-07-25T05:27:37;22.90;99.90
16154;DHT22;8182;55.648;13.208;2022-07-25T05:30:12;22.20;99.90
16154;DHT22;8182;55.648;13.208;2022-07-25T05:32:40;20.90;99.90
16154;DHT22;8182;55.648;13.208;2022-07-25T05:35:08;20.20;99.90
16154;DHT22;8182;55.648;13.208;2022-07-25T05:37:37;20.00;99.90
16154;DHT22;8182;55.648;13.208;2022-07-25T05:40:06;20.00;99.90
16154;DHT22;8182;55.648;13.208;2022-07-25T05:42:34;20.20;99.90
16154;DHT22;8182;55.648;13.208;2022-07-25T05:45:02;20.60;99.90
16154;DHT22;8182;55.648;13.208;2022-07-25T05:47:29;21.70;99.90
16154;DHT22;8182;55.648;13.208;2022-07-25T05:49:56;21.80;99.90
16154;DHT22;8182;55.648;13.208;2022-07-25T05:52:23;22.70;99.90
16154;DHT22;8182;55.648;13.208;2022-07-25T05:54:52;22.00;99.90
16154;DHT22;8182;55.648;13.208;2022-07-25T05:57:19;21.80;99.90
16154;DHT22;8182;55.648;13.208;2022-07-25T05:59:47;21.40;99.90
16154;DHT22;8182;55.648;13.208;2022-07-25T06:02:14;21.10;99.90
16154;DHT22;8182;55.648;13.208;2022-07-25T06:04:41;20.90;99.90
16154;DHT22;8182;55.648;13.208;2022-07-25T06:07:08;21.10;99.90
16154;DHT22;8182;55.648;13.208;2022-07-25T06:09:35;22.00;99.90
16154;DHT22;8182;55.648;13.208;2022-07-25T06:12:05;23.30;99.90
16154;DHT22;8182;55.648;13.208;2022-07-25T06:14:33;25.00;99.90
16154;DHT22;8182;55.648;13.208;2022-07-25T06:17:00;23.40;99.90
16154;DHT22;8182;55.648;13.208;2022-07-25T06:19:28;23.10;99.90
16154;DHT22;8182;55.648;13.208;2022-07-25T06:21:55;25.40;99.90
16154;DHT22;8182;55.648;13.208;2022-07-25T06:24:22;27.20;99.90
16154;DHT22;8182;55.648;13.208;2022-07-25T06:26:49;25.90;99.90
16154;DHT22;8182;55.648;13.208;2022-07-25T06:29:18;24.70;99.90
16154;DHT22;8182;55.648;13.208;2022-07-25T06:31:45;24.70;99.90
16154;DHT22;8182;55.648;13.208;2022-07-25T06:34:12;24.90;99.90
16154;DHT22;8182;55.648;13.208;2022-07-25T06:36:39;25.10;99.90
16154;DHT22;8182;55.648;13.208;2022-07-25T06:39:07;24.30;99.90
16154;DHT22;8182;55.648;13.208;2022-07-25T06:41:36;24.20;99.90
16154;DHT22;8182;55.648;13.208;2022-07-25T06:44:04;24.10;99.90
16154;DHT22;8182;55.648;13.208;2022-07-25T06:46:32;24.00;99.90
16154;DHT22;8182;55.648;13.208;2022-07-25T06:48:59;24.20;99.90
16154;DHT22;8182;55.648;13.208;2022-07-25T06:51:29;24.10;99.90
16154;DHT22;8182;55.648;13.208;2022-07-25T06:53:56;24.00;99.90
16154;DHT22;8182;55.648;13.208;2022-07-25T06:56:24;23.70;99.90
16154;DHT22;8182;55.648;13.208;2022-07-25T06:58:52;23.70;99.90
16154;DHT22;8182;55.648;13.208;2022-07-25T07:01:19;23.60;99.90
16154;DHT22;8182;55.648;13.208;2022-07-25T07:03:48;23.60;99.90
16154;DHT22;8182;55.648;13.208;2022-07-25T07:06:15;23.60;99.90
16154;DHT22;8182;55.648;13.208;2022-07-25T07:08:43;23.50;99.90
16154;DHT22;8182;55.648;13.208;2022-07-25T07:11:10;23.70;99.90
16154;DHT22;8182;55.648;13.208;2022-07-25T07:13:38;23.70;99.90
16154;DHT22;8182;55.648;13.208;2022-07-25T07:16:05;23.90;99.90
16154;DHT22;8182;55.648;13.208;2022-07-25T07:18:32;24.20;99.90
16154;DHT22;8182;55.648;13.208;2022-07-25T07:21:00;24.50;99.90
16154;DHT22;8182;55.648;13.208;2022-07-25T07:23:27;24.70;99.90
16154;DHT22;8182;55.648;13.208;2022-07-25T07:25:55;24.70;99.90
16154;DHT22;8182;55.648;13.208;2022-07-25T07:28:22;24.80;99.90
16154;DHT22;8182;55.648;13.208;2022-07-25T07:30:50;25.40;99.90
16154;DHT22;8182;55.648;13.208;2022-07-25T07:33:17;25.70;99.90
16154;DHT22;8182;55.648;13.208;2022-07-25T07:35:44;25.80;99.90
16154;DHT22;8182;55.648;13.208;2022-07-25T07:38:13;25.70;99.90
16154;DHT22;8182;55.648;13.208;2022-07-25T07:40:40;25.60;99.90
16154;DHT22;8182;55.648;13.208;2022-07-25T07:43:07;25.40;99.90
16154;DHT22;8182;55.648;13.208;2022-07-25T07:45:34;25.70;99.90
16154;DHT22;8182;55.648;13.208;2022-07-25T07:48:01;25.90;99.90
16154;DHT22;8182;55.648;13.208;2022-07-25T07:50:28;26.20;99.90
16154;DHT22;8182;55.648;13.208;2022-07-25T07:52:56;26.30;99.90
16154;DHT22;8182;55.648;13.208;2022-07-25T07:55:26;26.60;99.90
16154;DHT22;8182;55.648;13.208;2022-07-25T07:58:19;25.80;99.90
16154;DHT22;8182;55.648;13.208;2022-07-25T08:00:48;25.80;99.90
16154;DHT22;8182;55.648;13.208;2022-07-25T08:03:17;25.90;99.90
16154;DHT22;8182;55.648;13.208;2022-07-25T08:05:45;26.40;99.90
16154;DHT22;8182;55.648;13.208;2022-07-25T08:08:13;26.90;99.90
16154;DHT22;8182;55.648;13.208;2022-07-25T08:10:44;26.70;99.90
16154;DHT22;8182;55.648;13.208;2022-07-25T08:13:14;26.70;99.90
16154;DHT22;8182;55.648;13.208;2022-07-25T08:15:42;26.70;99.90
16154;DHT22;8182;55.648;13.208;2022-07-25T08:18:09;27.00;99.90
16154;DHT22;8182;55.648;13.208;2022-07-25T08:20:37;26.90;99.90
16154;DHT22;8182;55.648;13.208;2022-07-25T08:23:04;26.90;99.90
16154;DHT22;8182;55.648;13.208;2022-07-25T08:25:32;26.80;99.90
16154;DHT22;8182;55.648;13.208;2022-07-25T08:28:01;27.40;99.90
16154;DHT22;8182;55.648;13.208;2022-07-25T08:30:28;27.20;99.90
16154;DHT22;8182;55.648;13.208;2022-07-25T08:32:56;27.50;99.90
16154;DHT22;8182;55.648;13.208;2022-07-25T08:35:26;27.70;99.90
16154;DHT22;8182;55.648;13.208;2022-07-25T08:37:54;27.90;99.90
16154;DHT22;8182;55.648;13.208;2022-07-25T08:40:23;29.00;99.90
16154;DHT22;8182;55.648;13.208;2022-07-25T08:42:50;29.10;99.90
16154;DHT22;8182;55.648;13.208;2022-07-25T08:45:21;29.00;99.10
16154;DHT22;8182;55.648;13.208;2022-07-25T08:47:51;29.20;98.50
16154;DHT22;8182;55.648;13.208;2022-07-25T08:50:20;30.20;99.80
16154;DHT22;8182;55.648;13.208;2022-07-25T08:52:48;30.60;97.40
16154;DHT22;8182;55.648;13.208;2022-07-25T08:55:17;31.60;97.50
16154;DHT22;8182;55.648;13.208;2022-07-25T08:57:47;31.00;96.00
16154;DHT22;8182;55.648;13.208;2022-07-25T09:00:17;30.00;95.20
16154;DHT22;8182;55.648;13.208;2022-07-25T09:02:52;29.80;96.60
16154;DHT22;8182;55.648;13.208;2022-07-25T09:05:20;30.30;96.20
16154;DHT22;8182;55.648;13.208;2022-07-25T09:07:48;30.00;95.90
16154;DHT22;8182;55.648;13.208;2022-07-25T09:10:17;30.70;95.00
16154;DHT22;8182;55.648;13.208;2022-07-25T09:12:51;31.70;95.20
16154;DHT22;8182;55.648;13.208;2022-07-25T09:15:23;31.70;95.20
16154;DHT22;8182;55.648;13.208;2022-07-25T09:17:52;31.70;93.70
16154;DHT22;8182;55.648;13.208;2022-07-25T09:20:20;32.00;93.90
16154;DHT22;8182;55.648;13.208;2022-07-25T09:22:47;31.80;93.90
16154;DHT22;8182;55.648;13.208;2022-07-25T09:25:23;30.50;93.30
16154;DHT22;8182;55.648;13.208;2022-07-25T09:27:51;30.30;94.20
16154;DHT22;8182;55.648;13.208;2022-07-25T09:30:19;31.40;94.50
16154;DHT22;8182;55.648;13.208;2022-07-25T09:32:46;31.50;94.60
16154;DHT22;8182;55.648;13.208;2022-07-25T09:35:14;31.50;93.70
16154;DHT22;8182;55.648;13.208;2022-07-25T09:37:41;31.70;93.40
16154;DHT22;8182;55.648;13.208;2022-07-25T09:40:13;31.80;93.00
16154;DHT22;8182;55.648;13.208;2022-07-25T09:42:41;32.00;93.50
16154;DHT22;8182;55.648;13.208;2022-07-25T09:45:12;31.50;93.40
16154;DHT22;8182;55.648;13.208;2022-07-25T09:47:50;31.60;92.60
16154;DHT22;8182;55.648;13.208;2022-07-25T09:50:20;32.00;92.70
16154;DHT22;8182;55.648;13.208;2022-07-25T09:52:50;32.60;91.90
16154;DHT22;8182;55.648;13.208;2022-07-25T09:55:18;31.50;92.50
16154;DHT22;8182;55.648;13.208;2022-07-25T09:57:46;32.30;93.20
16154;DHT22;8182;55.648;13.208;2022-07-25T10:00:17;33.30;91.60
16154;DHT22;8182;55.648;13.208;2022-07-25T10:02:55;33.40;91.90
16154;DHT22;8182;55.648;13.208;2022-07-25T10:05:37;35.50;90.90
16154;DHT22;8182;55.648;13.208;2022-07-25T10:08:10;34.90;90.60
16154;DHT22;8182;55.648;13.208;2022-07-25T10:10:40;33.00;91.70
16154;DHT22;8182;55.648;13.208;2022-07-25T10:13:09;33.10;92.00
16154;DHT22;8182;55.648;13.208;2022-07-25T10:15:43;34.10;90.30
16154;DHT22;8182;55.648;13.208;2022-07-25T10:18:11;33.20;91.40
16154;DHT22;8182;55.648;13.208;2022-07-25T10:20:40;34.60;90.50
16154;DHT22;8182;55.648;13.208;2022-07-25T10:23:19;36.40;90.00
16154;DHT22;8182;55.648;13.208;2022-07-25T10:25:46;35.00;89.40
16154;DHT22;8182;55.648;13.208;2022-07-25T10:28:17;35.00;88.60
16154;DHT22;8182;55.648;13.208;2022-07-25T10:30:45;35.20;89.10
16154;DHT22;8182;55.648;13.208;2022-07-25T10:33:14;35.00;88.30
16154;DHT22;8182;55.648;13.208;2022-07-25T10:35:43;35.90;89.20
16154;DHT22;8182;55.648;13.208;2022-07-25T10:38:11;35.70;87.10
16154;DHT22;8182;55.648;13.208;2022-07-25T10:40:40;35.90;89.00
16154;DHT22;8182;55.648;13.208;2022-07-25T10:43:11;35.90;88.30
16154;DHT22;8182;55.648;13.208;2022-07-25T10:45:41;36.50;87.20
16154;DHT22;8182;55.648;13.208;2022-07-25T10:48:18;36.30;87.50
16154;DHT22;8182;55.648;13.208;2022-07-25T10:50:52;36.30;87.80
16154;DHT22;8182;55.648;13.208;2022-07-25T10:53:33;36.00;88.50
16154;DHT22;8182;55.648;13.208;2022-07-25T10:56:09;36.00;89.70
16154;DHT22;8182;55.648;13.208;2022-07-25T10:58:49;36.60;86.10
16154;DHT22;8182;55.648;13.208;2022-07-25T11:01:22;35.80;87.30
16154;DHT22;8182;55.648;13.208;2022-07-25T11:03:49;37.30;86.40
16154;DHT22;8182;55.648;13.208;2022-07-25T11:06:30;36.60;86.80
16154;DHT22;8182;55.648;13.208;2022-07-25T11:08:58;35.80;84.40
16154;DHT22;8182;55.648;13.208;2022-07-25T11:11:33;36.60;87.40
16154;DHT22;8182;55.648;13.208;2022-07-25T11:14:01;36.40;87.00
16154;DHT22;8182;55.648;13.208;2022-07-25T11:16:36;35.80;86.40
16154;DHT22;8182;55.648;13.208;2022-07-25T11:19:03;35.70;86.20
16154;DHT22;8182;55.648;13.208;2022-07-25T11:21:43;35.90;85.50
16154;DHT22;8182;55.648;13.208;2022-07-25T11:24:13;35.90;86.50
16154;DHT22;8182;55.648;13.208;2022-07-25T11:26:48;35.90;86.80
16154;DHT22;8182;55.648;13.208;2022-07-25T11:29:19;36.40;84.50
16154;DHT22;8182;55.648;13.208;2022-07-25T11:31:57;35.70;87.10
16154;DHT22;8182;55.648;13.208;2022-07-25T11:34:27;35.30;86.80
16154;DHT22;8182;55.648;13.208;2022-07-25T11:36:57;36.40;87.50
16154;DHT22;8182;55.648;13.208;2022-07-25T11:39:26;35.50;87.10
16154;DHT22;8182;55.648;13.208;2022-07-25T11:42:01;36.40;87.60
16154;DHT22;8182;55.648;13.208;2022-07-25T11:44:37;35.80;88.40
16154;DHT22;8182;55.648;13.208;2022-07-25T11:47:05;34.50;90.00
16154;DHT22;8182;55.648;13.208;2022-07-25T11:49:43;35.50;89.70
16154;DHT22;8182;55.648;13.208;2022-07-25T11:52:23;34.40;89.80
16154;DHT22;8182;55.648;13.208;2022-07-25T11:54:55;33.80;90.50
16154;DHT22;8182;55.648;13.208;2022-07-25T11:57:23;34.30;90.70
16154;DHT22;8182;55.648;13.208;2022-07-25T11:59:52;33.00;90.00
16154;DHT22;8182;55.648;13.208;2022-07-25T12:02:23;32.70;90.60
16154;DHT22;8182;55.648;13.208;2022-07-25T12:04:56;31.60;91.50
16154;DHT22;8182;55.648;13.208;2022-07-25T12:07:36;31.40;91.80
16154;DHT22;8182;55.648;13.208;2022-07-25T12:10:06;30.70;92.10
16154;DHT22;8182;55.648;13.208;2022-07-25T12:12:45;30.20;92.60
16154;DHT22;8182;55.648;13.208;2022-07-25T12:15:14;29.70;93.00
16154;DHT22;8182;55.648;13.208;2022-07-25T12:17:42;30.10;92.90
16154;DHT22;8182;55.648;13.208;2022-07-25T12:20:17;29.80;93.20
16154;DHT22;8182;55.648;13.208;2022-07-25T12:22:46;29.40;93.30
16154;DHT22;8182;55.648;13.208;2022-07-25T12:25:14;29.20;94.20
16154;DHT22;8182;55.648;13.208;2022-07-25T12:27:41;29.60;94.40
16154;DHT22;8182;55.648;13.208;2022-07-25T12:30:09;30.00;94.20
16154;DHT22;8182;55.648;13.208;2022-07-25T12:32:37;30.20;93.80
16154;DHT22;8182;55.648;13.208;2022-07-25T12:35:05;29.70;94.00
16154;DHT22;8182;55.648;13.208;2022-07-25T12:37:33;29.90;94.30
16154;DHT22;8182;55.648;13.208;2022-07-25T12:40:03;29.70;93.20
16154;DHT22;8182;55.648;13.208;2022-07-25T12:42:30;30.00;93.40
16154;DHT22;8182;55.648;13.208;2022-07-25T12:44:57;29.80;93.50
16154;DHT22;8182;55.648;13.208;2022-07-25T12:47:25;29.60;93.30
16154;DHT22;8182;55.648;13.208;2022-07-25T12:49:53;29.70;93.80
16154;DHT22;8182;55.648;13.208;2022-07-25T12:52:20;29.40;93.80
16154;DHT22;8182;55.648;13.208;2022-07-25T12:54:48;29.50;93.80
16154;DHT22;8182;55.648;13.208;2022-07-25T12:57:16;29.10;94.40
16154;DHT22;8182;55.648;13.208;2022-07-25T12:59:45;29.20;94.20
16154;DHT22;8182;55.648;13.208;2022-07-25T13:02:13;29.10;94.40
16154;DHT22;8182;55.648;13.208;2022-07-25T13:04:40;29.10;93.60
16154;DHT22;8182;55.648;13.208;2022-07-25T13:07:08;29.00;93.90
16154;DHT22;8182;55.648;13.208;2022-07-25T13:09:35;29.10;94.10
16154;DHT22;8182;55.648;13.208;2022-07-25T13:12:01;29.40;94.10
16154;DHT22;8182;55.648;13.208;2022-07-25T13:14:30;29.40;94.00
16154;DHT22;8182;55.648;13.208;2022-07-25T13:16:57;29.20;94.30
16154;DHT22;8182;55.648;13.208;2022-07-25T13:19:24;29.00;94.30
16154;DHT22;8182;55.648;13.208;2022-07-25T13:21:51;29.20;94.40
16154;DHT22;8182;55.648;13.208;2022-07-25T13:24:18;29.20;94.20
16154;DHT22;8182;55.648;13.208;2022-07-25T13:26:45;29.00;94.40
16154;DHT22;8182;55.648;13.208;2022-07-25T13:29:12;28.70;94.40
16154;DHT22;8182;55.648;13.208;2022-07-25T13:31:41;28.70;95.00
16154;DHT22;8182;55.648;13.208;2022-07-25T13:34:09;28.60;94.70
16154;DHT22;8182;55.648;13.208;2022-07-25T13:36:37;28.40;94.90
16154;DHT22;8182;55.648;13.208;2022-07-25T13:39:04;28.50;94.30
16154;DHT22;8182;55.648;13.208;2022-07-25T13:41:33;28.40;94.60
16154;DHT22;8182;55.648;13.208;2022-07-25T13:44:00;28.30;94.80
16154;DHT22;8182;55.648;13.208;2022-07-25T13:46:27;28.50;94.80
16154;DHT22;8182;55.648;13.208;2022-07-25T13:48:56;28.60;94.60
16154;DHT22;8182;55.648;13.208;2022-07-25T13:51:23;28.60;94.80
16154;DHT22;8182;55.648;13.208;2022-07-25T13:53:50;28.70;94.80
16154;DHT22;8182;55.648;13.208;2022-07-25T13:56:17;28.90;94.60
16154;DHT22;8182;55.648;13.208;2022-07-25T13:58:44;29.30;95.00
16154;DHT22;8182;55.648;13.208;2022-07-25T14:01:11;28.90;94.50
16154;DHT22;8182;55.648;13.208;2022-07-25T14:03:38;28.70;94.60
16154;DHT22;8182;55.648;13.208;2022-07-25T14:06:08;28.60;94.70
16154;DHT22;8182;55.648;13.208;2022-07-25T14:08:39;28.30;94.80
16154;DHT22;8182;55.648;13.208;2022-07-25T14:11:06;28.40;95.00
16154;DHT22;8182;55.648;13.208;2022-07-25T14:13:33;28.50;94.80
16154;DHT22;8182;55.648;13.208;2022-07-25T14:16:01;28.50;95.00
16154;DHT22;8182;55.648;13.208;2022-07-25T14:18:28;28.40;94.80
16154;DHT22;8182;55.648;13.208;2022-07-25T14:20:56;28.30;95.00
16154;DHT22;8182;55.648;13.208;2022-07-25T14:23:25;28.40;95.50
16154;DHT22;8182;55.648;13.208;2022-07-25T14:25:52;28.50;95.20
16154;DHT22;8182;55.648;13.208;2022-07-25T14:28:19;28.40;94.60
16154;DHT22;8182;55.648;13.208;2022-07-25T14:30:46;28.30;94.90
16154;DHT22;8182;55.648;13.208;2022-07-25T14:33:13;28.40;94.90
16154;DHT22;8182;55.648;13.208;2022-07-25T14:35:40;28.40;94.80
16154;DHT22;8182;55.648;13.208;2022-07-25T14:38:07;28.30;94.70
16154;DHT22;8182;55.648;13.208;2022-07-25T14:40:35;28.10;94.70
16154;DHT22;8182;55.648;13.208;2022-07-25T14:43:02;28.20;95.10
16154;DHT22;8182;55.648;13.208;2022-07-25T14:45:29;28.00;94.90
16154;DHT22;8182;55.648;13.208;2022-07-25T14:47:56;28.00;94.90
16154;DHT22;8182;55.648;13.208;2022-07-25T14:50:23;28.10;95.10
16154;DHT22;8182;55.648;13.208;2022-07-25T14:52:52;28.20;95.10
16154;DHT22;8182;55.648;13.208;2022-07-25T14:55:19;28.10;95.30
16154;DHT22;8182;55.648;13.208;2022-07-25T14:57:48;28.00;95.20
16154;DHT22;8182;55.648;13.208;2022-07-25T15:00:15;28.00;96.00
16154;DHT22;8182;55.648;13.208;2022-07-25T15:02:42;28.00;95.60
16154;DHT22;8182;55.648;13.208;2022-07-25T15:05:09;28.50;95.50
16154;DHT22;8182;55.648;13.208;2022-07-25T15:07:36;28.90;95.20
16154;DHT22;8182;55.648;13.208;2022-07-25T15:10:04;29.10;95.10
16154;DHT22;8182;55.648;13.208;2022-07-25T15:12:31;28.50;95.50
16154;DHT22;8182;55.648;13.208;2022-07-25T15:15:00;28.30;95.50
16154;DHT22;8182;55.648;13.208;2022-07-25T15:17:27;28.20;95.60
16154;DHT22;8182;55.648;13.208;2022-07-25T15:19:53;27.90;95.60
16154;DHT22;8182;55.648;13.208;2022-07-25T15:22:21;27.70;95.90
16154;DHT22;8182;55.648;13.208;2022-07-25T15:24:48;27.80;96.10
16154;DHT22;8182;55.648;13.208;2022-07-25T15:27:15;27.90;96.00
16154;DHT22;8182;55.648;13.208;2022-07-25T15:29:42;28.00;96.30
16154;DHT22;8182;55.648;13.208;2022-07-25T15:32:11;28.10;96.30
16154;DHT22;8182;55.648;13.208;2022-07-25T15:34:38;28.10;96.20
16154;DHT22;8182;55.648;13.208;2022-07-25T15:37:05;28.40;96.50
16154;DHT22;8182;55.648;13.208;2022-07-25T15:39:32;28.50;95.90